sensor_id;sensor_type;location;lat;lon;timestamp;temperature;humidity
4695;DHT22;2361;49.540;8.390;2023-08-20T00:01:22;26.40;99.90
4695;DHT22;2361;49.540;8.390;2023-08-20T00:03:52;26.40;99.90
4695;DHT22;2361;49.540;8.390;2023-08-20T00:06:20;26.40;99.90
4695;DHT22;2361;49.540;8.390;2023-08-20T00:08:48;26.40;99.90
4695;DHT22;2361;49.540;8.390;2023-08-20T00:11:15;26.40;99.90
4695;DHT22;2361;49.540;8.390;2023-08-20T00:13:43;26.40;99.90
4695;DHT22;2361;49.540;8.390;2023-08-20T00:16:10;26.40;99.90
4695;DHT22;2361;49.540;8.390;2023-08-20T00:18:38;26.40;99.90
4695;DHT22;2361;49.540;8.390;2023-08-20T00:21:06;26.30;99.90
4695;DHT22;2361;49.540;8.390;2023-08-20T00:23:35;26.30;99.90
4695;DHT22;2361;49.540;8.390;2023-08-20T00:26:02;26.20;99.90
4695;DHT22;2361;49.540;8.390;2023-08-20T00:28:30;26.20;99.90
4695;DHT22;2361;49.540;8.390;2023-08-20T00:31:00;26.10;99.90
4695;DHT22;2361;49.540;8.390;2023-08-20T00:33:27;26.10;99.90
4695;DHT22;2361;49.540;8.390;2023-08-20T00:35:55;26.00;99.90
4695;DHT22;2361;49.540;8.390;2023-08-20T00:38:22;26.00;99.90
4695;DHT22;2361;49.540;8.390;2023-08-20T00:40:49;26.00;99.90
4695;DHT22;2361;49.540;8.390;2023-08-20T00:43:16;26.00;99.90
4695;DHT22;2361;49.540;8.390;2023-08-20T00:45:43;26.00;99.90
4695;DHT22;2361;49.540;8.390;2023-08-20T00:48:10;26.00;99.90
4695;DHT22;2361;49.540;8.390;2023-08-20T00:50:39;26.00;99.90
4695;DHT22;2361;49.540;8.390;2023-08-20T00:53:08;26.00;99.90
4695;DHT22;2361;49.540;8.390;2023-08-20T00:55:37;26.00;99.90
4695;DHT22;2361;49.540;8.390;2023-08-20T00:58:04;25.90;99.90
4695;DHT22;2361;49.540;8.390;2023-08-20T01:00:31;25.90;99.90
4695;DHT22;2361;49.540;8.390;2023-08-20T01:02:58;25.80;99.90
4695;DHT22;2361;49.540;8.390;2023-08-20T01:05:26;25.80;99.90
4695;DHT22;2361;49.540;8.390;2023-08-20T01:13:16;25.70;99.90
4695;DHT22;2361;49.540;8.390;2023-08-20T01:15:43;25.70;99.90
4695;DHT22;2361;49.540;8.390;2023-08-20T01:18:10;25.70;99.90
4695;DHT22;2361;49.540;8.390;2023-08-20T01:20:41;25.70;99.90
4695;DHT22;2361;49.540;8.390;2023-08-20T01:23:50;25.60;99.90
4695;DHT22;2361;49.540;8.390;2023-08-20T01:29:16;25.60;99.90
4695;DHT22;2361;49.540;8.390;2023-08-20T01:31:44;25.60;99.90
4695;DHT22;2361;49.540;8.390;2023-08-20T01:34:11;25.50;99.90
4695;DHT22;2361;49.540;8.390;2023-08-20T01:36:39;25.50;99.90
4695;DHT22;2361;49.540;8.390;2023-08-20T01:39:06;25.50;99.90
4695;DHT22;2361;49.540;8.390;2023-08-20T01:41:34;25.40;99.90
4695;DHT22;2361;49.540;8.390;2023-08-20T01:44:01;25.40;99.90
4695;DHT22;2361;49.540;8.390;2023-08-20T01:46:28;25.30;99.90
4695;DHT22;2361;49.540;8.390;2023-08-20T01:48:55;25.30;99.90
4695;DHT22;2361;49.540;8.390;2023-08-20T01:51:22;25.30;99.90
4695;DHT22;2361;49.540;8.390;2023-08-20T01:53:49;25.30;99.90
4695;DHT22;2361;49.540;8.390;2023-08-20T01:56:16;25.20;99.90
4695;DHT22;2361;49.540;8.390;2023-08-20T01:58:43;25.20;99.90
4695;DHT22;2361;49.540;8.390;2023-08-20T02:01:10;25.20;99.90
4695;DHT22;2361;49.540;8.390;2023-08-20T02:03:37;25.20;99.90
4695;DHT22;2361;49.540;8.390;2023-08-20T02:06:04;25.20;99.90
4695;DHT22;2361;49.540;8.390;2023-08-20T02:08:31;25.20;99.90
4695;DHT22;2361;49.540;8.390;2023-08-20T02:11:02;25.20;99.90
4695;DHT22;2361;49.540;8.390;2023-08-20T02:13:31;25.20;99.90
4695;DHT22;2361;49.540;8.390;2023-08-20T02:16:02;25.10;99.90
4695;DHT22;2361;49.540;8.390;2023-08-20T02:18:30;25.10;99.90
4695;DHT22;2361;49.540;8.390;2023-08-20T02:20:57;25.10;99.90
4695;DHT22;2361;49.540;8.390;2023-08-20T02:23:24;25.10;99.90
4695;DHT22;2361;49.540;8.390;2023-08-20T02:25:51;25.00;99.90
4695;DHT22;2361;49.540;8.390;2023-08-20T02:28:18;25.00;99.90
4695;DHT22;2361;49.540;8.390;2023-08-20T02:30:46;25.10;99.90
4695;DHT22;2361;49.540;8.390;2023-08-20T02:33:13;25.00;99.90
4695;DHT22;2361;49.540;8.390;2023-08-20T02:35:40;25.00;99.90
4695;DHT22;2361;49.540;8.390;2023-08-20T02:38:07;25.00;99.90
4695;DHT22;2361;49.540;8.390;2023-08-20T02:40:41;25.00;99.90
4695;DHT22;2361;49.540;8.390;2023-08-20T02:43:08;24.90;99.90
4695;DHT22;2361;49.540;8.390;2023-08-20T02:45:42;24.90;99.90
4695;DHT22;2361;49.540;8.390;2023-08-20T02:48:10;24.90;99.90
4695;DHT22;2361;49.540;8.390;2023-08-20T02:50:37;24.90;99.90
4695;DHT22;2361;49.540;8.390;2023-08-20T02:53:05;24.90;99.90
4695;DHT22;2361;49.540;8.390;2023-08-20T02:55:33;24.80;99.90
4695;DHT22;2361;49.540;8.390;2023-08-20T02:58:00;24.80;99.90
4695;DHT22;2361;49.540;8.390;2023-08-20T03:00:27;24.80;99.90
4695;DHT22;2361;49.540;8.390;2023-08-20T03:02:54;24.80;99.90
4695;DHT22;2361;49.540;8.390;2023-08-20T03:05:21;24.80;99.90
4695;DHT22;2361;49.540;8.390;2023-08-20T03:07:49;24.80;99.90
4695;DHT22;2361;49.540;8.390;2023-08-20T03:10:16;24.80;99.90
4695;DHT22;2361;49.540;8.390;2023-08-20T03:12:43;24.70;99.90
4695;DHT22;2361;49.540;8.390;2023-08-20T03:15:10;24.60;99.90
4695;DHT22;2361;49.540;8.390;2023-08-20T03:17:37;24.60;99.90
4695;DHT22;2361;49.540;8.390;2023-08-20T03:20:05;24.60;99.90
4695;DHT22;2361;49.540;8.390;2023-08-20T03:22:33;24.70;99.90
4695;DHT22;2361;49.540;8.390;2023-08-20T03:25:03;24.70;99.90
4695;DHT22;2361;49.540;8.390;2023-08-20T03:27:31;24.80;99.90
4695;DHT22;2361;49.540;8.390;2023-08-20T03:29:58;24.80;99.90
4695;DHT22;2361;49.540;8.390;2023-08-20T03:32:25;24.80;99.90
4695;DHT22;2361;49.540;8.390;2023-08-20T03:34:52;24.70;99.90
4695;DHT22;2361;49.540;8.390;2023-08-20T03:37:21;24.70;99.90
4695;DHT22;2361;49.540;8.390;2023-08-20T03:39:48;24.80;99.90
4695;DHT22;2361;49.540;8.390;2023-08-20T03:42:15;24.80;99.90
4695;DHT22;2361;49.540;8.390;2023-08-20T03:44:42;24.80;99.90
4695;DHT22;2361;49.540;8.390;2023-08-20T03:47:09;24.80;99.90
4695;DHT22;2361;49.540;8.390;2023-08-20T03:49:37;24.80;99.90
4695;DHT22;2361;49.540;8.390;2023-08-20T03:52:05;24.70;99.90
4695;DHT22;2361;49.540;8.390;2023-08-20T03:54:33;24.70;99.90
4695;DHT22;2361;49.540;8.390;2023-08-20T03:57:01;24.70;99.90
4695;DHT22;2361;49.540;8.390;2023-08-20T03:59:29;24.60;99.90
4695;DHT22;2361;49.540;8.390;2023-08-20T04:01:57;24.60;99.90
4695;DHT22;2361;49.540;8.390;2023-08-20T04:04:24;24.60;99.90
4695;DHT22;2361;49.540;8.390;2023-08-20T04:06:51;24.50;99.90
4695;DHT22;2361;49.540;8.390;2023-08-20T04:09:18;24.50;99.90
4695;DHT22;2361;49.540;8.390;2023-08-20T04:11:45;24.40;99.90
4695;DHT22;2361;49.540;8.390;2023-08-20T04:14:12;24.40;99.90
4695;DHT22;2361;49.540;8.390;2023-08-20T04:16:39;24.40;99.90
4695;DHT22;2361;49.540;8.390;2023-08-20T04:19:06;24.40;99.90
4695;DHT22;2361;49.540;8.390;2023-08-20T04:21:32;24.30;99.90
4695;DHT22;2361;49.540;8.390;2023-08-20T04:23:59;24.30;99.90
4695;DHT22;2361;49.540;8.390;2023-08-20T04:26:26;24.20;99.90
4695;DHT22;2361;49.540;8.390;2023-08-20T04:28:53;24.20;99.90
4695;DHT22;2361;49.540;8.390;2023-08-20T04:31:20;24.20;99.90
4695;DHT22;2361;49.540;8.390;2023-08-20T04:33:47;24.20;99.90
4695;DHT22;2361;49.540;8.390;2023-08-20T04:36:14;24.20;99.90
4695;DHT22;2361;49.540;8.390;2023-08-20T04:38:41;24.10;99.90
4695;DHT22;2361;49.540;8.390;2023-08-20T04:41:08;24.10;99.90
4695;DHT22;2361;49.540;8.390;2023-08-20T04:43:35;24.10;99.90
4695;DHT22;2361;49.540;8.390;2023-08-20T04:46:02;24.10;99.90
4695;DHT22;2361;49.540;8.390;2023-08-20T04:48:29;24.20;99.90
4695;DHT22;2361;49.540;8.390;2023-08-20T04:50:56;24.20;99.90
4695;DHT22;2361;49.540;8.390;2023-08-20T04:53:23;24.20;99.90
4695;DHT22;2361;49.540;8.390;2023-08-20T04:55:50;24.20;99.90
4695;DHT22;2361;49.540;8.390;2023-08-20T04:58:17;24.40;99.90
4695;DHT22;2361;49.540;8.390;2023-08-20T05:00:44;24.50;99.90
4695;DHT22;2361;49.540;8.390;2023-08-20T05:03:11;24.60;99.90
4695;DHT22;2361;49.540;8.390;2023-08-20T05:05:38;24.80;99.90
4695;DHT22;2361;49.540;8.390;2023-08-20T05:08:05;25.00;99.90
4695;DHT22;2361;49.540;8.390;2023-08-20T05:10:32;25.20;99.90
4695;DHT22;2361;49.540;8.390;2023-08-20T05:12:59;25.30;99.90
4695;DHT22;2361;49.540;8.390;2023-08-20T05:15:26;25.40;99.90
4695;DHT22;2361;49.540;8.390;2023-08-20T05:17:53;25.60;99.90
4695;DHT22;2361;49.540;8.390;2023-08-20T05:20:20;25.80;99.90
4695;DHT22;2361;49.540;8.390;2023-08-20T05:22:47;25.90;99.90
4695;DHT22;2361;49.540;8.390;2023-08-20T05:25:14;26.00;99.90
4695;DHT22;2361;49.540;8.390;2023-08-20T05:27:41;26.10;99.90
4695;DHT22;2361;49.540;8.390;2023-08-20T05:30:08;26.10;99.90
4695;DHT22;2361;49.540;8.390;2023-08-20T05:32:35;26.00;99.90
4695;DHT22;2361;49.540;8.390;2023-08-20T05:35:03;26.00;99.90
4695;DHT22;2361;49.540;8.390;2023-08-20T05:37:30;26.00;99.90
4695;DHT22;2361;49.540;8.390;2023-08-20T05:39:57;26.00;99.90
4695;DHT22;2361;49.540;8.390;2023-08-20T05:42:24;25.90;99.90
4695;DHT22;2361;49.540;8.390;2023-08-20T05:44:51;26.00;99.90
4695;DHT22;2361;49.540;8.390;2023-08-20T05:47:18;26.30;99.90
4695;DHT22;2361;49.540;8.390;2023-08-20T05:49:45;26.70;99.90
4695;DHT22;2361;49.540;8.390;2023-08-20T05:52:12;27.10;99.90
4695;DHT22;2361;49.540;8.390;2023-08-20T05:54:39;27.60;99.90
4695;DHT22;2361;49.540;8.390;2023-08-20T05:57:06;28.20;99.90
4695;DHT22;2361;49.540;8.390;2023-08-20T05:59:33;28.90;99.90
4695;DHT22;2361;49.540;8.390;2023-08-20T06:02:01;29.60;99.90
4695;DHT22;2361;49.540;8.390;2023-08-20T06:04:29;30.30;99.90
4695;DHT22;2361;49.540;8.390;2023-08-20T06:06:56;31.00;99.90
4695;DHT22;2361;49.540;8.390;2023-08-20T06:09:23;31.30;99.90
4695;DHT22;2361;49.540;8.390;2023-08-20T06:11:50;31.70;99.90
4695;DHT22;2361;49.540;8.390;2023-08-20T06:14:18;32.20;99.90
4695;DHT22;2361;49.540;8.390;2023-08-20T06:16:44;32.60;99.90
4695;DHT22;2361;49.540;8.390;2023-08-20T06:19:11;32.50;99.90
4695;DHT22;2361;49.540;8.390;2023-08-20T06:21:38;32.60;99.90
4695;DHT22;2361;49.540;8.390;2023-08-20T06:24:05;33.00;99.90
4695;DHT22;2361;49.540;8.390;2023-08-20T06:26:33;33.70;99.90
4695;DHT22;2361;49.540;8.390;2023-08-20T06:29:00;34.30;99.90
4695;DHT22;2361;49.540;8.390;2023-08-20T06:31:27;34.90;98.90
4695;DHT22;2361;49.540;8.390;2023-08-20T06:33:54;35.50;97.80
4695;DHT22;2361;49.540;8.390;2023-08-20T06:36:21;35.90;96.40
4695;DHT22;2361;49.540;8.390;2023-08-20T06:38:48;35.90;95.50
4695;DHT22;2361;49.540;8.390;2023-08-20T06:41:14;35.40;95.50
4695;DHT22;2361;49.540;8.390;2023-08-20T06:43:41;34.60;95.80
4695;DHT22;2361;49.540;8.390;2023-08-20T06:46:08;33.70;96.70
4695;DHT22;2361;49.540;8.390;2023-08-20T06:48:36;32.90;98.00
4695;DHT22;2361;49.540;8.390;2023-08-20T06:51:13;32.30;98.80
4695;DHT22;2361;49.540;8.390;2023-08-20T06:53:41;31.80;99.90
4695;DHT22;2361;49.540;8.390;2023-08-20T06:56:08;32.30;99.90
4695;DHT22;2361;49.540;8.390;2023-08-20T06:58:36;33.30;99.20
4695;DHT22;2361;49.540;8.390;2023-08-20T07:01:03;34.30;97.80
4695;DHT22;2361;49.540;8.390;2023-08-20T07:03:41;35.00;96.70
4695;DHT22;2361;49.540;8.390;2023-08-20T07:06:09;35.70;95.50
4695;DHT22;2361;49.540;8.390;2023-08-20T07:08:37;36.20;94.40
4695;DHT22;2361;49.540;8.390;2023-08-20T07:11:08;36.50;93.70
4695;DHT22;2361;49.540;8.390;2023-08-20T07:13:35;36.70;93.50
4695;DHT22;2361;49.540;8.390;2023-08-20T07:16:02;36.80;92.40
4695;DHT22;2361;49.540;8.390;2023-08-20T07:18:29;36.80;92.30
4695;DHT22;2361;49.540;8.390;2023-08-20T07:20:56;36.80;92.10
4695;DHT22;2361;49.540;8.390;2023-08-20T07:23:23;36.80;92.00
4695;DHT22;2361;49.540;8.390;2023-08-20T07:25:50;36.90;91.70
4695;DHT22;2361;49.540;8.390;2023-08-20T07:28:20;37.00;91.40
4695;DHT22;2361;49.540;8.390;2023-08-20T07:31:07;37.10;91.00
4695;DHT22;2361;49.540;8.390;2023-08-20T07:33:34;37.10;90.60
4695;DHT22;2361;49.540;8.390;2023-08-20T07:36:01;37.10;90.60
4695;DHT22;2361;49.540;8.390;2023-08-20T07:38:28;37.00;90.30
4695;DHT22;2361;49.540;8.390;2023-08-20T07:40:55;36.70;90.60
4695;DHT22;2361;49.540;8.390;2023-08-20T07:43:22;36.50;90.70
4695;DHT22;2361;49.540;8.390;2023-08-20T07:45:50;36.60;90.80
4695;DHT22;2361;49.540;8.390;2023-08-20T07:48:17;36.50;90.60
4695;DHT22;2361;49.540;8.390;2023-08-20T07:50:44;36.50;90.70
4695;DHT22;2361;49.540;8.390;2023-08-20T07:53:11;36.50;90.80
4695;DHT22;2361;49.540;8.390;2023-08-20T07:55:38;36.50;90.80
4695;DHT22;2361;49.540;8.390;2023-08-20T07:58:05;36.40;90.60
4695;DHT22;2361;49.540;8.390;2023-08-20T08:00:32;36.30;90.50
4695;DHT22;2361;49.540;8.390;2023-08-20T08:02:59;36.30;90.70
4695;DHT22;2361;49.540;8.390;2023-08-20T08:05:26;36.20;90.70
4695;DHT22;2361;49.540;8.390;2023-08-20T08:07:54;36.10;90.70
4695;DHT22;2361;49.540;8.390;2023-08-20T08:10:21;35.90;90.80
4695;DHT22;2361;49.540;8.390;2023-08-20T08:12:48;35.80;91.00
4695;DHT22;2361;49.540;8.390;2023-08-20T08:15:15;35.60;90.80
4695;DHT22;2361;49.540;8.390;2023-08-20T08:17:42;35.50;91.10
4695;DHT22;2361;49.540;8.390;2023-08-20T08:20:09;35.50;91.00
4695;DHT22;2361;49.540;8.390;2023-08-20T08:22:36;35.40;91.00
4695;DHT22;2361;49.540;8.390;2023-08-20T08:25:03;35.40;90.70
4695;DHT22;2361;49.540;8.390;2023-08-20T08:27:30;35.40;90.90
4695;DHT22;2361;49.540;8.390;2023-08-20T08:29:57;35.50;91.10
4695;DHT22;2361;49.540;8.390;2023-08-20T08:32:25;35.40;90.70
4695;DHT22;2361;49.540;8.390;2023-08-20T08:34:51;35.20;91.00
4695;DHT22;2361;49.540;8.390;2023-08-20T08:37:18;35.10;90.90
4695;DHT22;2361;49.540;8.390;2023-08-20T08:39:45;35.10;90.90
4695;DHT22;2361;49.540;8.390;2023-08-20T08:42:12;35.10;91.10
4695;DHT22;2361;49.540;8.390;2023-08-20T08:44:41;35.10;91.10
4695;DHT22;2361;49.540;8.390;2023-08-20T08:47:08;35.10;90.80
4695;DHT22;2361;49.540;8.390;2023-08-20T08:49:35;35.10;91.20
4695;DHT22;2361;49.540;8.390;2023-08-20T08:52:04;35.00;91.40
4695;DHT22;2361;49.540;8.390;2023-08-20T08:54:33;34.80;91.80
4695;DHT22;2361;49.540;8.390;2023-08-20T08:57:00;34.80;91.90
4695;DHT22;2361;49.540;8.390;2023-08-20T08:59:27;34.70;92.00
4695;DHT22;2361;49.540;8.390;2023-08-20T09:01:54;34.70;92.20
4695;DHT22;2361;49.540;8.390;2023-08-20T09:04:23;34.70;92.00
4695;DHT22;2361;49.540;8.390;2023-08-20T09:06:52;34.50;92.10
4695;DHT22;2361;49.540;8.390;2023-08-20T09:09:21;34.50;92.30
4695;DHT22;2361;49.540;8.390;2023-08-20T09:11:48;34.40;92.30
4695;DHT22;2361;49.540;8.390;2023-08-20T09:14:22;34.50;92.40
4695;DHT22;2361;49.540;8.390;2023-08-20T09:17:01;34.50;91.90
4695;DHT22;2361;49.540;8.390;2023-08-20T09:19:29;34.50;91.90
4695;DHT22;2361;49.540;8.390;2023-08-20T09:22:05;34.50;91.90
4695;DHT22;2361;49.540;8.390;2023-08-20T09:24:34;34.50;91.80
4695;DHT22;2361;49.540;8.390;2023-08-20T09:27:06;34.40;91.50
4695;DHT22;2361;49.540;8.390;2023-08-20T09:29:46;34.40;91.90
4695;DHT22;2361;49.540;8.390;2023-08-20T09:32:16;34.40;91.90
4695;DHT22;2361;49.540;8.390;2023-08-20T09:34:54;34.40;91.70
4695;DHT22;2361;49.540;8.390;2023-08-20T09:37:23;34.30;91.60
4695;DHT22;2361;49.540;8.390;2023-08-20T09:39:51;34.30;91.90
4695;DHT22;2361;49.540;8.390;2023-08-20T09:42:18;34.30;91.90
4695;DHT22;2361;49.540;8.390;2023-08-20T09:44:46;34.40;91.90
4695;DHT22;2361;49.540;8.390;2023-08-20T09:47:17;34.30;91.70
4695;DHT22;2361;49.540;8.390;2023-08-20T09:49:47;34.30;91.90
4695;DHT22;2361;49.540;8.390;2023-08-20T09:52:25;34.00;92.40
4695;DHT22;2361;49.540;8.390;2023-08-20T09:57:40;33.60;92.80
4695;DHT22;2361;49.540;8.390;2023-08-20T10:00:12;33.50;92.60
4695;DHT22;2361;49.540;8.390;2023-08-20T10:02:43;33.40;92.90
4695;DHT22;2361;49.540;8.390;2023-08-20T10:05:11;33.30;92.80
4695;DHT22;2361;49.540;8.390;2023-08-20T10:07:39;33.30;93.30
4695;DHT22;2361;49.540;8.390;2023-08-20T10:10:07;33.30;93.20
4695;DHT22;2361;49.540;8.390;2023-08-20T10:12:37;33.30;93.00
4695;DHT22;2361;49.540;8.390;2023-08-20T10:15:07;33.20;92.80
4695;DHT22;2361;49.540;8.390;2023-08-20T10:17:37;33.10;92.90
4695;DHT22;2361;49.540;8.390;2023-08-20T10:20:06;33.10;92.90
4695;DHT22;2361;49.540;8.390;2023-08-20T10:22:41;33.10;92.80
4695;DHT22;2361;49.540;8.390;2023-08-20T10:25:12;33.00;92.90
4695;DHT22;2361;49.540;8.390;2023-08-20T10:27:49;32.90;92.90
4695;DHT22;2361;49.540;8.390;2023-08-20T10:30:26;32.80;93.00
4695;DHT22;2361;49.540;8.390;2023-08-20T10:32:57;32.70;93.20
4695;DHT22;2361;49.540;8.390;2023-08-20T10:38:11;32.70;93.00
4695;DHT22;2361;49.540;8.390;2023-08-20T10:40:58;32.70;93.20
4695;DHT22;2361;49.540;8.390;2023-08-20T10:43:33;32.70;93.10
4695;DHT22;2361;49.540;8.390;2023-08-20T10:46:07;32.80;93.10
4695;DHT22;2361;49.540;8.390;2023-08-20T10:48:56;32.80;93.30
4695;DHT22;2361;49.540;8.390;2023-08-20T10:51:53;32.80;93.10
4695;DHT22;2361;49.540;8.390;2023-08-20T10:54:22;32.80;93.10
4695;DHT22;2361;49.540;8.390;2023-08-20T10:56:58;32.70;94.10
4695;DHT22;2361;49.540;8.390;2023-08-20T10:59:29;32.60;93.10
4695;DHT22;2361;49.540;8.390;2023-08-20T11:01:58;32.40;92.70
4695;DHT22;2361;49.540;8.390;2023-08-20T11:04:30;32.50;92.60
4695;DHT22;2361;49.540;8.390;2023-08-20T11:07:01;32.50;92.20
4695;DHT22;2361;49.540;8.390;2023-08-20T11:09:30;32.50;92.20
4695;DHT22;2361;49.540;8.390;2023-08-20T11:11:58;32.50;92.10
4695;DHT22;2361;49.540;8.390;2023-08-20T11:14:25;32.50;92.00
4695;DHT22;2361;49.540;8.390;2023-08-20T11:16:52;32.40;91.70
4695;DHT22;2361;49.540;8.390;2023-08-20T11:19:21;32.40;91.90
4695;DHT22;2361;49.540;8.390;2023-08-20T11:21:49;32.50;91.30
4695;DHT22;2361;49.540;8.390;2023-08-20T11:24:16;32.40;91.00
4695;DHT22;2361;49.540;8.390;2023-08-20T11:26:44;32.40;90.80
4695;DHT22;2361;49.540;8.390;2023-08-20T11:29:13;32.40;91.20
4695;DHT22;2361;49.540;8.390;2023-08-20T11:31:46;32.30;91.40
4695;DHT22;2361;49.540;8.390;2023-08-20T11:34:18;32.30;91.60
4695;DHT22;2361;49.540;8.390;2023-08-20T11:36:45;32.30;91.80
4695;DHT22;2361;49.540;8.390;2023-08-20T11:39:12;32.20;91.80
4695;DHT22;2361;49.540;8.390;2023-08-20T11:41:40;32.20;91.40
4695;DHT22;2361;49.540;8.390;2023-08-20T11:44:10;32.20;91.60
4695;DHT22;2361;49.540;8.390;2023-08-20T11:46:44;32.30;91.80
4695;DHT22;2361;49.540;8.390;2023-08-20T11:49:12;32.20;91.30
4695;DHT22;2361;49.540;8.390;2023-08-20T11:51:41;32.30;91.70
4695;DHT22;2361;49.540;8.390;2023-08-20T11:54:17;32.30;91.90
4695;DHT22;2361;49.540;8.390;2023-08-20T11:56:48;32.30;91.80
4695;DHT22;2361;49.540;8.390;2023-08-20T11:59:18;32.30;92.20
4695;DHT22;2361;49.540;8.390;2023-08-20T12:01:56;32.30;92.10
4695;DHT22;2361;49.540;8.390;2023-08-20T12:04:29;32.30;92.20
4695;DHT22;2361;49.540;8.390;2023-08-20T12:07:05;32.30;92.00
4695;DHT22;2361;49.540;8.390;2023-08-20T12:09:36;32.30;91.80
4695;DHT22;2361;49.540;8.390;2023-08-20T12:12:06;32.30;91.90
4695;DHT22;2361;49.540;8.390;2023-08-20T12:14:34;32.30;92.00
4695;DHT22;2361;49.540;8.390;2023-08-20T12:17:02;32.20;91.80
4695;DHT22;2361;49.540;8.390;2023-08-20T12:19:30;32.20;91.90
4695;DHT22;2361;49.540;8.390;2023-08-20T12:21:57;32.20;92.10
4695;DHT22;2361;49.540;8.390;2023-08-20T12:24:23;32.20;92.20
4695;DHT22;2361;49.540;8.390;2023-08-20T12:26:52;32.20;92.00
4695;DHT22;2361;49.540;8.390;2023-08-20T12:29:19;32.10;91.50
4695;DHT22;2361;49.540;8.390;2023-08-20T12:31:46;32.10;91.70
4695;DHT22;2361;49.540;8.390;2023-08-20T12:34:13;32.10;91.40
4695;DHT22;2361;49.540;8.390;2023-08-20T12:36:40;32.00;91.40
4695;DHT22;2361;49.540;8.390;2023-08-20T12:39:07;31.90;91.40
4695;DHT22;2361;49.540;8.390;2023-08-20T12:41:35;31.90;91.00
4695;DHT22;2361;49.540;8.390;2023-08-20T12:44:03;31.90;90.60
4695;DHT22;2361;49.540;8.390;2023-08-20T12:46:30;31.90;90.60
4695;DHT22;2361;49.540;8.390;2023-08-20T12:48:57;31.90;89.70
4695;DHT22;2361;49.540;8.390;2023-08-20T12:51:24;31.90;89.90
4695;DHT22;2361;49.540;8.390;2023-08-20T12:53:51;31.90;90.40
4695;DHT22;2361;49.540;8.390;2023-08-20T12:56:18;31.90;90.90
4695;DHT22;2361;49.540;8.390;2023-08-20T12:58:45;31.90;90.30
4695;DHT22;2361;49.540;8.390;2023-08-20T13:01:12;31.90;90.10
4695;DHT22;2361;49.540;8.390;2023-08-20T13:03:39;31.90;89.20
4695;DHT22;2361;49.540;8.390;2023-08-20T13:06:06;31.90;88.20
4695;DHT22;2361;49.540;8.390;2023-08-20T13:08:34;31.90;89.10
4695;DHT22;2361;49.540;8.390;2023-08-20T13:11:01;31.90;88.50
4695;DHT22;2361;49.540;8.390;2023-08-20T13:13:32;31.80;86.30
4695;DHT22;2361;49.540;8.390;2023-08-20T13:16:01;31.80;85.30
4695;DHT22;2361;49.540;8.390;2023-08-20T13:18:29;31.80;85.40
4695;DHT22;2361;49.540;8.390;2023-08-20T13:20:56;31.80;86.30
4695;DHT22;2361;49.540;8.390;2023-08-20T13:23:23;31.80;85.30
4695;DHT22;2361;49.540;8.390;2023-08-20T13:25:50;31.80;82.90
4695;DHT22;2361;49.540;8.390;2023-08-20T13:28:17;31.80;82.70
4695;DHT22;2361;49.540;8.390;2023-08-20T13:30:45;31.80;83.00
4695;DHT22;2361;49.540;8.390;2023-08-20T13:33:13;31.80;83.20
4695;DHT22;2361;49.540;8.390;2023-08-20T13:35:41;31.90;82.90
4695;DHT22;2361;49.540;8.390;2023-08-20T13:38:08;31.90;80.20
4695;DHT22;2361;49.540;8.390;2023-08-20T13:40:35;31.80;81.30
4695;DHT22;2361;49.540;8.390;2023-08-20T13:43:02;31.80;83.10
4695;DHT22;2361;49.540;8.390;2023-08-20T13:45:29;31.90;83.90
4695;DHT22;2361;49.540;8.390;2023-08-20T13:47:57;31.90;84.40
4695;DHT22;2361;49.540;8.390;2023-08-20T13:50:24;31.90;84.10
4695;DHT22;2361;49.540;8.390;2023-08-20T13:52:51;31.90;84.90
4695;DHT22;2361;49.540;8.390;2023-08-20T13:55:18;31.90;83.60
4695;DHT22;2361;49.540;8.390;2023-08-20T13:57:45;31.90;83.70
4695;DHT22;2361;49.540;8.390;2023-08-20T14:00:12;31.90;83.90
4695;DHT22;2361;49.540;8.390;2023-08-20T14:02:40;31.80;82.90
4695;DHT22;2361;49.540;8.390;2023-08-20T14:05:07;31.80;82.60
4695;DHT22;2361;49.540;8.390;2023-08-20T14:07:35;31.80;82.90
4695;DHT22;2361;49.540;8.390;2023-08-20T14:10:03;31.80;83.10
4695;DHT22;2361;49.540;8.390;2023-08-20T14:12:33;31.80;83.20
4695;DHT22;2361;49.540;8.390;2023-08-20T14:15:04;31.80;84.00
4695;DHT22;2361;49.540;8.390;2023-08-20T14:17:31;31.80;84.80
4695;DHT22;2361;49.540;8.390;2023-08-20T14:19:58;31.80;84.80
4695;DHT22;2361;49.540;8.390;2023-08-20T14:22:25;31.80;85.30
4695;DHT22;2361;49.540;8.390;2023-08-20T14:24:52;31.80;85.80
4695;DHT22;2361;49.540;8.390;2023-08-20T14:27:21;31.70;86.10
4695;DHT22;2361;49.540;8.390;2023-08-20T14:29:49;31.70;86.40
4695;DHT22;2361;49.540;8.390;2023-08-20T14:32:16;31.80;86.80
4695;DHT22;2361;49.540;8.390;2023-08-20T14:34:43;31.80;87.00
4695;DHT22;2361;49.540;8.390;2023-08-20T14:37:10;31.80;87.00
4695;DHT22;2361;49.540;8.390;2023-08-20T14:39:40;31.80;87.30
4695;DHT22;2361;49.540;8.390;2023-08-20T14:42:07;31.70;87.40
4695;DHT22;2361;49.540;8.390;2023-08-20T14:44:34;31.70;87.50
4695;DHT22;2361;49.540;8.390;2023-08-20T14:47:01;31.70;87.40
4695;DHT22;2361;49.540;8.390;2023-08-20T14:49:31;31.70;87.70
4695;DHT22;2361;49.540;8.390;2023-08-20T14:51:58;31.70;87.90
4695;DHT22;2361;49.540;8.390;2023-08-20T14:54:44;31.70;87.40
4695;DHT22;2361;49.540;8.390;2023-08-20T14:57:11;31.70;86.90
4695;DHT22;2361;49.540;8.390;2023-08-20T14:59:38;31.70;87.20
4695;DHT22;2361;49.540;8.390;2023-08-20T15:02:05;31.70;87.00
4695;DHT22;2361;49.540;8.390;2023-08-20T15:04:32;31.70;86.60
4695;DHT22;2361;49.540;8.390;2023-08-20T15:06:59;31.70;86.30
4695;DHT22;2361;49.540;8.390;2023-08-20T15:09:26;31.70;86.20
4695;DHT22;2361;49.540;8.390;2023-08-20T15:11:53;31.70;86.80
4695;DHT22;2361;49.540;8.390;2023-08-20T15:14:20;31.70;87.00
4695;DHT22;2361;49.540;8.390;2023-08-20T15:16:48;31.70;87.10
4695;DHT22;2361;49.540;8.390;2023-08-20T15:19:15;31.70;87.20
4695;DHT22;2361;49.540;8.390;2023-08-20T15:21:42;31.60;87.20
4695;DHT22;2361;49.540;8.390;2023-08-20T15:24:12;31.70;86.90
4695;DHT22;2361;49.540;8.390;2023-08-20T15:26:38;31.70;87.10
4695;DHT22;2361;49.540;8.390;2023-08-20T15:29:05;31.70;86.60
4695;DHT22;2361;49.540;8.390;2023-08-20T15:31:33;31.70;87.50
4695;DHT22;2361;49.540;8.390;2023-08-20T15:34:00;31.60;86.90
4695;DHT22;2361;49.540;8.390;2023-08-20T15:36:27;31.60;87.30
4695;DHT22;2361;49.540;8.390;2023-08-20T15:38:54;31.60;87.50
4695;DHT22;2361;49.540;8.390;2023-08-20T15:41:21;31.60;87.50
4695;DHT22;2361;49.540;8.390;2023-08-20T15:43:48;31.60;87.90
4695;DHT22;2361;49.540;8.390;2023-08-20T15:46:15;31.60;87.40
4695;DHT22;2361;49.540;8.390;2023-08-20T15:48:42;31.60;87.30
4695;DHT22;2361;49.540;8.390;2023-08-20T15:51:09;31.50;87.20
4695;DHT22;2361;49.540;8.390;2023-08-20T15:53:36;31.60;87.70
4695;DHT22;2361;49.540;8.390;2023-08-20T15:56:04;31.60;87.30
4695;DHT22;2361;49.540;8.390;2023-08-20T15:58:32;31.60;87.30
4695;DHT22;2361;49.540;8.390;2023-08-20T16:00:59;31.60;88.10
4695;DHT22;2361;49.540;8.390;2023-08-20T16:03:29;31.60;88.50
4695;DHT22;2361;49.540;8.390;2023-08-20T16:05:56;31.60;88.00
4695;DHT22;2361;49.540;8.390;2023-08-20T16:08:25;31.60;87.90
4695;DHT22;2361;49.540;8.390;2023-08-20T16:10:52;31.60;87.40
4695;DHT22;2361;49.540;8.390;2023-08-20T16:13:19;31.60;87.70
4695;DHT22;2361;49.540;8.390;2023-08-20T16:15:47;31.50;87.80
4695;DHT22;2361;49.540;8.390;2023-08-20T16:18:14;31.50;88.40
4695;DHT22;2361;49.540;8.390;2023-08-20T16:20:41;31.40;88.20
4695;DHT22;2361;49.540;8.390;2023-08-20T16:23:09;31.50;88.10